Mount Hope, West Virginia
Current Conditions -  °F | °C
As of 5:51 AM on Wednesday 22 Oct 2014 (Local Time) from KBKW Reporting Station
Light Rain Light Rain  
Wind Chill: 35°   Ceiling: 300
Heat Index: 41°   Visibility: 6mi
Dew Point: 39°   Wind: 9mph
Humidity: 93%   Direction: 330°NNW
Pressure: 30.07"   Gusts: NA
Location:  37.9°N, 81.16°W
Report Text: KBKW 220951Z AUTO 33008KT 6SM -RA BR OVC003 05/04 A3007 RMK AO2 RAB06 SLP193 P0000 T00500039 TSNO
Loading
Personal Weather Stations






























Interactive Weather Map
Tropical Storm Tracking
New forecast layout! Learn more

10-Day Weather Forecast

Advertisements
Track Severe Weather on mobile